createdAt,value
2023-05-23T08:45:33.242Z,51.44
2023-05-23T08:48:39.293Z,51.64
2023-05-23T08:51:45.866Z,52.40
2023-05-23T08:54:53.277Z,52.48
2023-05-23T08:58:01.852Z,52.70
2023-05-23T09:01:28.242Z,52.62
2023-05-23T09:04:35.800Z,51.86
2023-05-23T09:07:48.247Z,51.13
2023-05-23T09:10:56.623Z,50.70
2023-05-23T09:14:03.533Z,49.62
2023-05-23T09:17:13.485Z,49.67
2023-05-23T09:20:28.465Z,49.86
2023-05-23T09:23:37.107Z,49.55
2023-05-23T09:26:41.748Z,48.97
2023-05-23T09:29:54.266Z,48.54
2023-05-23T09:33:08.944Z,48.21
2023-05-23T09:36:08.160Z,48.33
2023-05-23T09:39:19.011Z,47.56
2023-05-23T09:42:19.424Z,48.23
2023-05-23T09:45:25.955Z,47.69
2023-05-23T09:48:32.596Z,47.28
2023-05-23T09:51:38.927Z,46.50
2023-05-23T09:54:45.389Z,46.97
2023-05-23T09:57:53.269Z,45.88
2023-05-23T10:01:01.354Z,46.05
2023-05-23T10:04:29.784Z,45.40
2023-05-23T10:07:35.107Z,45.16
2023-05-23T10:10:40.887Z,45.75
2023-05-23T10:13:47.372Z,45.04
2023-05-23T10:17:18.424Z,45.63
2023-05-23T10:20:30.892Z,46.28
2023-05-23T10:23:36.839Z,45.12
2023-05-23T10:26:42.698Z,44.70
2023-05-23T10:29:48.704Z,45.44
2023-05-23T10:32:55.528Z,46.17
2023-05-23T10:36:07.284Z,45.33
2023-05-23T10:39:20.594Z,46.09
2023-05-23T10:42:39.554Z,45.11
2023-05-23T10:45:45.968Z,45.39
2023-05-23T10:48:56.629Z,44.62
2023-05-23T10:52:05.974Z,44.49
2023-05-23T10:55:11.079Z,44.52
2023-05-23T10:58:33.009Z,44.19
2023-05-23T11:01:39.695Z,44.54
2023-05-23T11:04:46.053Z,43.92
2023-05-23T11:07:52.542Z,43.07
2023-05-23T11:11:18.745Z,43.06
2023-05-23T11:14:25.900Z,42.55
2023-05-23T11:17:30.912Z,41.80
2023-05-23T11:20:42.877Z,41.43
2023-05-23T11:23:57.085Z,41.85
2023-05-23T11:27:10.949Z,41.45
2023-05-23T11:30:20.796Z,41.91
2023-05-23T11:33:27.947Z,41.84
2023-05-23T11:36:35.383Z,42.04
2023-05-23T11:39:40.865Z,41.80
2023-05-23T11:42:46.452Z,41.87
2023-05-23T11:45:56.350Z,40.65
2023-05-23T11:49:02.761Z,40.46
2023-05-23T11:52:08.998Z,40.67
2023-05-23T11:55:16.848Z,39.53
2023-05-23T11:58:23.617Z,39.11
2023-05-23T12:01:30.624Z,40.00
2023-05-23T12:04:35.980Z,39.33
2023-05-23T12:07:40.800Z,39.21
2023-05-23T12:10:47.758Z,39.04
2023-05-23T12:13:54.600Z,39.32
2023-05-23T12:16:59.398Z,38.93
2023-05-23T12:20:06.941Z,38.61
2023-05-23T12:23:13.732Z,38.76
2023-05-23T12:26:20.892Z,38.43
2023-05-23T12:29:26.611Z,39.10
2023-05-23T12:32:31.349Z,39.28
2023-05-23T12:35:39.092Z,39.31
2023-05-23T12:38:51.601Z,39.61
2023-05-23T12:41:58.975Z,39.96
2023-05-23T12:45:07.415Z,39.10
2023-05-23T12:48:15.841Z,39.54
2023-05-23T12:51:20.885Z,40.06
2023-05-23T12:54:27.572Z,39.82
2023-05-23T12:57:33.638Z,39.97
2023-05-23T13:00:39.747Z,39.15
2023-05-23T13:03:39.282Z,39.37
2023-05-23T13:06:31.911Z,39.06
2023-05-23T13:09:38.113Z,38.37
2023-05-23T13:12:46.334Z,38.49
2023-05-23T13:15:52.233Z,38.02
2023-05-23T13:18:59.751Z,38.26
2023-05-23T13:22:07.287Z,38.07
2023-05-23T13:25:14.046Z,38.74
2023-05-23T13:28:20.623Z,38.83
2023-05-23T13:31:19.916Z,38.35
2023-05-23T13:34:26.033Z,38.35
2023-05-23T13:37:32.132Z,37.80
2023-05-23T13:40:38.954Z,38.66
2023-05-23T13:43:46.764Z,40.23
2023-05-23T13:46:54.141Z,42.33
2023-05-23T13:49:59.750Z,43.89
2023-05-23T13:53:06.149Z,44.95
2023-05-23T13:56:12.274Z,46.02
2023-05-23T13:59:17.230Z,46.13
2023-05-23T14:02:22.178Z,46.43
2023-05-23T14:05:28.095Z,46.68
2023-05-23T14:08:33.606Z,47.19
2023-05-23T14:11:38.553Z,47.36
2023-05-23T14:14:43.769Z,47.12
2023-05-23T14:17:50.801Z,46.93
2023-05-23T14:20:59.154Z,46.84
2023-05-23T14:24:06.336Z,46.56
2023-05-23T14:27:13.461Z,45.54
2023-05-23T14:30:20.729Z,45.77
2023-05-23T14:33:26.372Z,45.83
2023-05-23T14:36:31.252Z,46.31
2023-05-23T14:39:36.638Z,46.56
2023-05-23T14:42:42.541Z,46.32
2023-05-23T14:45:48.136Z,46.74
2023-05-23T14:48:54.260Z,46.38
2023-05-23T14:52:00.133Z,46.69
2023-05-23T14:55:06.151Z,47.35
2023-05-23T14:58:12.741Z,47.27
2023-05-23T15:01:19.976Z,46.89
2023-05-23T15:04:27.419Z,46.74
2023-05-23T15:07:34.220Z,46.88
2023-05-23T15:10:39.799Z,46.55
2023-05-23T15:13:46.431Z,46.48
2023-05-23T15:16:55.286Z,46.49
2023-05-23T15:20:04.599Z,46.31
2023-05-23T15:23:10.781Z,46.23
2023-05-23T15:26:15.658Z,46.32
2023-05-23T15:29:24.744Z,46.12
2023-05-23T15:32:24.538Z,46.25
2023-05-23T15:35:19.491Z,46.18
2023-05-23T15:38:20.199Z,46.48
2023-05-23T15:41:26.626Z,47.15
2023-05-23T15:44:32.240Z,47.92
2023-05-23T15:47:37.598Z,48.28
2023-05-23T15:50:44.934Z,48.22
2023-05-23T15:56:59.586Z,48.13
2023-05-23T16:00:06.421Z,47.26
2023-05-23T16:03:12.603Z,47.48
2023-05-23T16:06:19.007Z,47.54
2023-05-23T16:09:23.653Z,47.38
2023-05-23T16:12:29.109Z,47.60
2023-05-23T16:15:35.221Z,47.46
2023-05-23T16:18:41.838Z,47.72
2023-05-23T16:21:48.095Z,48.28
2023-05-23T16:24:55.386Z,48.83
2023-05-23T16:28:02.477Z,48.60
2023-05-23T16:31:08.616Z,48.76
2023-05-23T16:34:13.672Z,48.68
2023-05-23T16:37:19.271Z,49.03
2023-05-23T16:40:25.643Z,48.86
2023-05-23T16:43:34.145Z,49.06
2023-05-23T16:46:39.718Z,48.87
2023-05-23T16:49:47.012Z,49.37
2023-05-23T16:52:54.289Z,49.31
2023-05-23T16:56:00.874Z,49.88
2023-05-23T16:59:07.475Z,49.88
2023-05-23T17:02:13.496Z,49.89
2023-05-23T17:05:19.580Z,50.92
2023-05-23T17:08:25.578Z,50.74
2023-05-23T17:11:32.549Z,51.14
2023-05-23T17:14:38.910Z,51.67
2023-05-23T17:17:43.707Z,51.91
2023-05-23T17:20:50.356Z,51.89
2023-05-23T17:23:55.993Z,52.10
2023-05-23T17:27:01.405Z,52.52
2023-05-23T17:30:06.837Z,52.33
2023-05-23T17:33:12.220Z,52.87
2023-05-23T17:36:18.834Z,52.93
2023-05-23T17:39:23.795Z,53.11
2023-05-23T17:42:29.980Z,53.44
2023-05-23T17:45:35.378Z,53.85
2023-05-23T17:48:47.537Z,54.59
2023-05-23T17:51:49.116Z,55.12
2023-05-23T17:54:55.068Z,55.83
2023-05-23T17:58:01.405Z,55.94
2023-05-23T18:01:08.081Z,56.11
2023-05-23T18:04:14.038Z,56.44
2023-05-23T18:07:20.061Z,56.72
2023-05-23T18:10:26.860Z,57.01
2023-05-23T18:13:32.796Z,58.17
2023-05-23T18:16:38.680Z,57.89
2023-05-23T18:19:43.572Z,58.02
2023-05-23T18:22:50.255Z,58.26
2023-05-23T18:25:56.161Z,58.30
2023-05-23T18:29:02.469Z,58.39
2023-05-23T18:32:00.864Z,58.27
2023-05-23T18:34:53.699Z,58.80
2023-05-23T18:37:58.798Z,59.05
2023-05-23T18:41:05.474Z,59.24
2023-05-23T18:44:05.139Z,59.33
2023-05-23T18:46:51.076Z,59.88
2023-05-23T18:49:42.969Z,60.62
2023-05-23T18:52:34.751Z,61.04
2023-05-23T18:55:39.387Z,61.47
2023-05-23T18:58:46.890Z,61.34
2023-05-23T19:01:52.672Z,61.79
2023-05-23T19:05:00.190Z,62.25
2023-05-23T19:08:06.243Z,62.31
2023-05-23T19:11:12.712Z,61.99
2023-05-23T19:14:20.775Z,62.12
2023-05-23T19:17:26.747Z,61.79
2023-05-23T19:20:32.042Z,61.75
2023-05-23T19:23:38.114Z,62.10
2023-05-23T19:26:37.482Z,62.23
2023-05-23T19:29:43.471Z,61.89
2023-05-23T19:32:48.668Z,61.56
2023-05-23T19:35:54.228Z,61.62
2023-05-23T19:39:02.117Z,61.87
2023-05-23T19:42:08.249Z,61.48
2023-05-23T19:45:14.584Z,61.66
2023-05-23T19:48:20.376Z,61.48
2023-05-23T19:51:25.139Z,61.17
2023-05-23T19:54:30.903Z,61.29
2023-05-23T19:57:35.618Z,61.36
2023-05-23T20:00:42.342Z,61.83
2023-05-23T20:03:47.821Z,62.09
2023-05-23T20:06:54.795Z,62.24
2023-05-23T20:09:59.597Z,62.23
2023-05-23T20:13:05.728Z,62.75
2023-05-23T20:16:10.854Z,62.99
2023-05-23T20:19:17.685Z,63.06
2023-05-23T20:22:24.250Z,63.65
2023-05-23T20:25:30.841Z,63.71
2023-05-23T20:28:36.816Z,64.06
2023-05-23T20:31:43.498Z,63.40
2023-05-23T20:34:42.430Z,62.98
2023-05-23T20:37:50.673Z,61.58
2023-05-23T20:40:59.437Z,61.24
2023-05-23T20:44:07.067Z,60.02
2023-05-23T20:47:13.671Z,59.91
2023-05-23T20:50:22.002Z,59.68
2023-05-23T20:53:27.465Z,60.05
2023-05-23T20:56:34.315Z,60.67
2023-05-23T20:59:39.128Z,60.72
2023-05-23T21:02:44.097Z,60.90
2023-05-23T21:05:49.163Z,61.01
2023-05-23T21:08:55.766Z,61.13
2023-05-23T21:12:01.821Z,61.02
2023-05-23T21:15:07.327Z,60.98
2023-05-23T21:18:12.179Z,60.52
2023-05-23T21:21:17.944Z,61.41
2023-05-23T21:24:23.607Z,60.45
2023-05-23T21:27:23.982Z,60.37
2023-05-23T21:30:28.816Z,60.25
2023-05-23T21:33:34.499Z,60.80
2023-05-23T21:36:40.240Z,60.65
2023-05-23T21:39:51.917Z,60.26
2023-05-23T21:42:54.782Z,60.45
2023-05-23T21:46:01.337Z,60.87
2023-05-23T21:48:59.992Z,60.54
2023-05-23T21:51:52.887Z,60.56
2023-05-23T21:54:58.380Z,60.95
2023-05-23T21:58:03.809Z,61.06
2023-05-23T22:01:09.626Z,60.42
2023-05-23T22:04:15.528Z,60.70
2023-05-23T22:07:20.089Z,61.69
2023-05-23T22:10:25.838Z,61.65
2023-05-23T22:13:31.376Z,61.36
2023-05-23T22:16:39.910Z,60.91
2023-05-23T22:19:46.990Z,60.82
2023-05-23T22:22:52.748Z,61.98
2023-05-23T22:25:59.043Z,61.29
2023-05-23T22:29:04.510Z,61.07
2023-05-23T22:32:11.099Z,60.91
2023-05-23T22:35:15.888Z,61.11
2023-05-23T22:38:21.944Z,61.51
2023-05-23T22:41:27.249Z,60.96
2023-05-23T22:44:33.743Z,60.78
2023-05-23T22:47:39.080Z,61.90
2023-05-23T22:50:46.584Z,62.75
2023-05-23T22:53:52.500Z,61.94
2023-05-23T22:56:58.488Z,61.63
2023-05-23T23:00:04.216Z,60.92
2023-05-23T23:03:10.442Z,60.90
2023-05-23T23:06:17.197Z,60.98
2023-05-23T23:09:24.805Z,60.35
2023-05-23T23:12:31.074Z,60.34
2023-05-23T23:15:37.054Z,59.81
2023-05-23T23:18:42.998Z,60.10
2023-05-23T23:21:49.420Z,59.92
2023-05-23T23:24:55.351Z,60.06
2023-05-23T23:28:01.267Z,60.88
2023-05-23T23:31:07.079Z,61.34
2023-05-23T23:34:12.612Z,61.55
2023-05-23T23:37:17.489Z,61.67
2023-05-23T23:40:24.216Z,61.59
2023-05-23T23:43:30.563Z,61.20
2023-05-23T23:46:36.242Z,61.12
2023-05-23T23:49:40.624Z,61.25
2023-05-23T23:52:46.642Z,60.96
2023-05-23T23:55:53.546Z,60.96
2023-05-23T23:58:59.674Z,60.88
